createdAt,value
2022-11-01T00:01:07.618Z,29.88
2022-11-01T00:03:34.320Z,31.33
2022-11-01T00:06:00.928Z,33.55
2022-11-01T00:08:27.430Z,35.70
2022-11-01T00:11:01.836Z,37.35
2022-11-01T00:13:28.848Z,32.90
2022-11-01T00:15:55.288Z,29.75
2022-11-01T00:18:21.750Z,35.10
2022-11-01T00:20:48.210Z,34.65
2022-11-01T00:23:15.963Z,33.25
2022-11-01T00:25:42.461Z,36.47
2022-11-01T00:28:08.927Z,32.03
2022-11-01T00:30:39.282Z,41.03
2022-11-01T00:33:06.070Z,37.40
2022-11-01T00:35:33.154Z,35.15
2022-11-01T00:38:00.347Z,37.75
2022-11-01T00:40:27.092Z,35.28
2022-11-01T00:42:53.585Z,34.78
2022-11-01T00:45:20.063Z,37.92
2022-11-01T00:47:47.424Z,36.15
2022-11-01T00:50:14.154Z,39.35
2022-11-01T00:52:40.812Z,34.78
2022-11-01T00:55:07.552Z,46.10
2022-11-01T00:57:34.018Z,36.40
2022-11-01T01:00:00.599Z,37.17
2022-11-01T01:02:27.208Z,38.17
2022-11-01T01:04:54.737Z,35.78
2022-11-01T01:07:21.273Z,37.90
2022-11-01T01:09:47.734Z,39.60
2022-11-01T01:12:14.190Z,42.63
2022-11-01T01:14:40.635Z,44.10
2022-11-01T01:17:07.857Z,42.67
2022-11-01T01:19:34.392Z,45.33
2022-11-01T01:22:01.124Z,41.28
2022-11-01T01:24:27.828Z,42.95
2022-11-01T01:26:54.603Z,41.08
2022-11-01T01:29:21.070Z,41.63
2022-11-01T01:31:47.526Z,40.13
2022-11-01T01:34:13.978Z,38.35
2022-11-01T01:36:40.462Z,42.63
2022-11-01T01:39:06.943Z,45.20
2022-11-01T01:41:51.957Z,41.65
2022-11-01T01:44:46.178Z,51.47
2022-11-01T01:49:42.652Z,38.00
2022-11-01T01:52:09.523Z,44.88
2022-11-01T01:54:36.111Z,48.13
2022-11-01T01:57:02.558Z,45.20
2022-11-01T01:59:29.029Z,40.28
2022-11-01T02:01:55.670Z,43.05
2022-11-01T02:04:26.370Z,40.25
2022-11-01T02:06:52.825Z,41.92
2022-11-01T02:09:19.599Z,39.38
2022-11-01T02:11:46.144Z,43.75
2022-11-01T02:14:12.610Z,42.08
2022-11-01T02:16:46.400Z,41.15
2022-11-01T02:19:31.695Z,37.80
2022-11-01T02:22:23.220Z,46.78
2022-11-01T02:25:11.514Z,45.83
2022-11-01T02:27:43.898Z,40.67
2022-11-01T02:30:23.926Z,41.60
2022-11-01T02:33:07.625Z,40.67
2022-11-01T02:35:33.969Z,44.28
2022-11-01T02:38:18.495Z,41.70
2022-11-01T02:41:03.757Z,38.10
2022-11-01T02:43:33.356Z,40.88
2022-11-01T02:46:21.777Z,42.08
2022-11-01T02:48:48.378Z,39.30
2022-11-01T02:51:17.871Z,39.95
2022-11-01T02:53:44.446Z,39.53
2022-11-01T02:56:11.250Z,42.47
2022-11-01T02:58:37.706Z,40.92
2022-11-01T03:01:15.098Z,38.30
2022-11-01T03:03:43.502Z,40.30
2022-11-01T03:06:20.886Z,37.22
2022-11-01T03:08:59.249Z,35.70
2022-11-01T03:11:39.552Z,37.92
2022-11-01T03:14:14.825Z,40.88
2022-11-01T03:17:01.563Z,41.78
2022-11-01T03:19:43.975Z,41.22
2022-11-01T03:22:14.024Z,36.75
2022-11-01T03:24:43.517Z,37.40
2022-11-01T03:27:35.493Z,36.83
2022-11-01T03:30:05.645Z,36.03
2022-11-01T03:32:36.589Z,37.25
2022-11-01T03:35:03.797Z,36.17
2022-11-01T03:37:30.774Z,36.75
2022-11-01T03:39:58.317Z,33.83
2022-11-01T03:42:25.012Z,41.10
2022-11-01T03:44:57.404Z,37.55
2022-11-01T03:47:23.960Z,38.00
2022-11-01T03:50:13.590Z,36.05
2022-11-01T03:52:40.054Z,40.60
2022-11-01T03:55:19.385Z,35.38
2022-11-01T03:57:47.610Z,35.42
2022-11-01T04:00:19.216Z,39.60
2022-11-01T04:02:45.668Z,36.35
2022-11-01T04:05:12.446Z,42.42
2022-11-01T04:07:39.431Z,38.33
2022-11-01T04:10:06.815Z,37.75
2022-11-01T04:12:33.318Z,39.95
2022-11-01T04:15:18.309Z,40.13
2022-11-01T04:18:03.472Z,38.22
2022-11-01T04:20:36.277Z,38.63
2022-11-01T04:23:05.397Z,37.40
2022-11-01T04:25:33.056Z,40.13
2022-11-01T04:27:59.800Z,37.60
2022-11-01T04:30:28.096Z,41.88
2022-11-01T04:32:55.116Z,36.47
2022-11-01T04:35:22.355Z,40.40
2022-11-01T04:37:48.856Z,41.38
2022-11-01T04:40:15.479Z,39.33
2022-11-01T04:42:41.969Z,42.80
2022-11-01T04:45:08.910Z,41.83
2022-11-01T04:47:35.362Z,42.35
2022-11-01T04:50:01.818Z,39.53
2022-11-01T04:52:28.301Z,45.97
2022-11-01T04:54:54.768Z,41.33
2022-11-01T04:57:24.289Z,42.70
2022-11-01T04:59:51.510Z,42.53
2022-11-01T05:02:19.079Z,43.22
2022-11-01T05:04:45.655Z,38.83
2022-11-01T05:07:12.393Z,39.92
2022-11-01T05:09:38.841Z,42.90
2022-11-01T05:12:05.304Z,42.10
2022-11-01T05:14:31.752Z,38.42
2022-11-01T05:16:58.560Z,42.42
2022-11-01T05:19:25.274Z,39.60
2022-11-01T05:21:52.146Z,40.70
2022-11-01T05:24:19.754Z,40.33
2022-11-01T05:26:46.630Z,41.00
2022-11-01T05:29:24.453Z,42.95
2022-11-01T05:31:57.836Z,37.83
2022-11-01T05:34:24.288Z,41.83
2022-11-01T05:36:50.753Z,43.13
2022-11-01T05:39:17.290Z,38.95
2022-11-01T05:41:43.965Z,40.50
2022-11-01T05:44:10.453Z,39.65
2022-11-01T05:46:37.106Z,39.28
2022-11-01T05:49:04.652Z,37.58
2022-11-01T05:51:31.176Z,37.35
2022-11-01T05:53:57.737Z,35.17
2022-11-01T05:56:24.262Z,37.47
2022-11-01T05:58:50.829Z,41.30
2022-11-01T06:01:17.961Z,37.35
2022-11-01T06:03:49.416Z,36.95
2022-11-01T06:06:15.910Z,37.45
2022-11-01T06:08:42.452Z,40.40
2022-11-01T06:11:12.235Z,35.97
2022-11-01T06:13:38.814Z,37.88
2022-11-01T06:16:06.013Z,37.65
2022-11-01T06:18:34.775Z,38.75
2022-11-01T06:21:01.297Z,40.75
2022-11-01T06:23:27.831Z,42.00
2022-11-01T06:26:04.695Z,40.17
2022-11-01T06:28:33.977Z,39.95
2022-11-01T06:31:03.351Z,39.72
2022-11-01T06:33:30.643Z,42.75
2022-11-01T06:35:59.699Z,39.92
2022-11-01T06:38:26.313Z,36.47
2022-11-01T06:40:52.838Z,38.00
2022-11-01T06:43:19.375Z,39.20
2022-11-01T06:45:45.872Z,33.15
2022-11-01T06:48:12.446Z,39.28
2022-11-01T06:50:38.935Z,34.47
2022-11-01T06:53:05.463Z,38.85
2022-11-01T06:55:34.757Z,38.63
2022-11-01T06:58:04.744Z,39.78
2022-11-01T07:00:32.038Z,43.85
2022-11-01T07:03:04.314Z,34.42
2022-11-01T07:05:36.121Z,40.70
2022-11-01T07:08:14.534Z,43.55
2022-11-01T07:10:43.092Z,37.47
2022-11-01T07:13:14.541Z,41.88
2022-11-01T07:15:41.275Z,42.70
2022-11-01T07:18:12.303Z,45.35
2022-11-01T07:20:41.918Z,42.97
2022-11-01T07:23:17.637Z,38.45
2022-11-01T07:25:44.281Z,39.17
2022-11-01T07:28:12.017Z,40.95
2022-11-01T07:30:39.274Z,40.33
2022-11-01T07:33:06.118Z,42.13
2022-11-01T07:35:33.758Z,39.72
2022-11-01T07:38:02.823Z,39.92
2022-11-01T07:40:34.283Z,35.72
2022-11-01T07:43:02.270Z,41.85
2022-11-01T07:45:30.390Z,34.35
2022-11-01T07:48:34.446Z,40.13
2022-11-01T07:51:07.039Z,36.17
2022-11-01T07:53:33.717Z,39.40
2022-11-01T07:56:01.654Z,41.08
2022-11-01T07:58:28.373Z,37.50
2022-11-01T08:00:54.995Z,35.72
2022-11-01T08:03:21.582Z,34.05
2022-11-01T08:05:49.449Z,32.10
2022-11-01T08:08:17.001Z,33.90
2022-11-01T08:10:48.534Z,31.88
2022-11-01T08:13:20.543Z,33.65
2022-11-01T08:15:48.085Z,32.33
2022-11-01T08:18:15.262Z,31.58
2022-11-01T08:20:44.556Z,29.13
2022-11-01T08:23:11.640Z,29.70
2022-11-01T08:25:38.605Z,33.35
2022-11-01T08:28:07.642Z,29.27
2022-11-01T08:30:36.345Z,27.50
2022-11-01T08:33:04.274Z,30.58
2022-11-01T08:35:31.538Z,27.17
2022-11-01T08:37:59.168Z,27.48
2022-11-01T08:40:26.404Z,23.35
2022-11-01T08:42:52.940Z,24.90
2022-11-01T08:45:19.598Z,27.08
2022-11-01T08:47:46.130Z,26.95
2022-11-01T08:50:18.179Z,28.73
2022-11-01T08:52:46.947Z,27.45
2022-11-01T08:55:13.423Z,26.88
2022-11-01T08:57:39.981Z,27.92
2022-11-01T09:00:07.191Z,25.48
2022-11-01T09:02:34.072Z,22.50
2022-11-01T09:05:05.020Z,23.00
2022-11-01T09:07:31.737Z,22.88
2022-11-01T09:09:59.395Z,23.30
2022-11-01T09:12:29.025Z,22.77
2022-11-01T09:14:55.614Z,20.42
2022-11-01T09:17:22.209Z,19.30
2022-11-01T09:19:48.765Z,17.92
2022-11-01T09:22:15.287Z,19.80
2022-11-01T09:24:45.194Z,18.63
2022-11-01T09:27:14.321Z,17.83
2022-11-01T09:29:40.857Z,18.80
2022-11-01T09:32:07.560Z,12.73
2022-11-01T09:34:34.492Z,10.68
2022-11-01T09:37:03.088Z,12.35
2022-11-01T09:39:29.627Z,13.75
2022-11-01T09:42:04.227Z,11.20
2022-11-01T09:44:35.853Z,11.68
2022-11-01T09:47:09.317Z,11.52
2022-11-01T09:49:38.589Z,12.00
2022-11-01T09:52:06.173Z,9.90
2022-11-01T09:54:44.040Z,13.18
2022-11-01T09:57:37.830Z,12.05
2022-11-01T10:00:13.325Z,10.27
2022-11-01T10:03:34.146Z,10.65
2022-11-01T10:06:17.897Z,11.68
2022-11-01T10:08:58.921Z,9.13
2022-11-01T10:11:36.386Z,11.25
2022-11-01T10:14:42.502Z,10.60
2022-11-01T10:17:19.968Z,10.60
2022-11-01T10:19:48.762Z,6.63
2022-11-01T10:22:35.542Z,10.57
2022-11-01T10:25:10.746Z,9.95
2022-11-01T10:27:52.197Z,9.63
2022-11-01T10:30:19.772Z,8.60
2022-11-01T10:32:58.241Z,11.93
2022-11-01T10:35:29.849Z,11.00
2022-11-01T10:38:35.158Z,8.15
2022-11-01T10:41:50.748Z,13.38
2022-11-01T10:44:27.836Z,10.88
2022-11-01T10:46:54.836Z,8.48
2022-11-01T10:49:35.070Z,7.78
2022-11-01T10:52:08.566Z,9.95
2022-11-01T10:54:37.282Z,6.57
2022-11-01T10:57:08.295Z,7.72
2022-11-01T10:59:41.379Z,9.05
2022-11-01T11:02:43.719Z,8.70
2022-11-01T11:05:14.540Z,7.38
2022-11-01T11:07:41.821Z,6.30
2022-11-01T11:10:24.073Z,10.02
2022-11-01T11:12:54.089Z,9.60
2022-11-01T11:15:28.650Z,9.13
2022-11-01T11:17:57.940Z,7.00
2022-11-01T11:20:26.481Z,9.32
2022-11-01T11:22:53.281Z,6.88
2022-11-01T11:25:23.442Z,12.05
2022-11-01T11:27:54.919Z,8.18
2022-11-01T11:30:30.275Z,14.35
2022-11-01T11:32:58.627Z,9.32
2022-11-01T11:35:27.553Z,8.77
2022-11-01T11:38:00.120Z,9.70
2022-11-01T11:40:39.115Z,7.65
2022-11-01T11:43:33.212Z,11.27
2022-11-01T11:46:12.373Z,7.78
2022-11-01T11:48:53.170Z,12.80
2022-11-01T11:51:21.523Z,9.95
2022-11-01T11:54:06.830Z,16.45
2022-11-01T11:56:36.148Z,9.85
2022-11-01T11:59:08.507Z,9.77
2022-11-01T12:01:35.431Z,11.93
2022-11-01T12:04:12.402Z,15.07
2022-11-01T12:06:46.649Z,21.33
2022-11-01T12:09:36.852Z,13.50
2022-11-01T12:12:27.248Z,15.07
2022-11-01T12:14:56.271Z,17.27
2022-11-01T12:17:26.793Z,14.15
2022-11-01T12:20:15.494Z,14.85
2022-11-01T12:23:02.896Z,15.88
2022-11-01T12:25:29.596Z,13.18
2022-11-01T12:28:01.875Z,16.98
2022-11-01T12:30:31.397Z,10.20
2022-11-01T12:32:59.775Z,12.40
2022-11-01T12:35:37.704Z,11.77
2022-11-01T12:38:35.082Z,11.02
2022-11-01T12:41:13.723Z,13.32
2022-11-01T12:44:13.978Z,16.58
2022-11-01T12:46:55.303Z,16.42
2022-11-01T12:49:36.993Z,17.40
2022-11-01T12:52:14.142Z,12.70
2022-11-01T12:54:46.949Z,19.02
2022-11-01T12:57:16.025Z,14.93
2022-11-01T12:59:43.881Z,12.93
2022-11-01T13:02:29.907Z,14.05
2022-11-01T13:05:06.445Z,9.80
2022-11-01T13:07:35.723Z,8.98
2022-11-01T13:10:20.662Z,13.65
2022-11-01T13:12:59.543Z,15.93
2022-11-01T13:16:16.724Z,17.02
2022-11-01T13:19:30.024Z,18.02
2022-11-01T13:22:29.827Z,22.65
2022-11-01T13:25:18.378Z,15.57
2022-11-01T13:28:02.328Z,11.02
2022-11-01T13:33:33.952Z,16.55
2022-11-01T13:36:17.945Z,13.73
2022-11-01T13:39:02.047Z,11.13
2022-11-01T13:41:33.943Z,11.77
2022-11-01T13:44:11.614Z,17.83
2022-11-01T13:46:41.705Z,17.13
2022-11-01T13:49:11.028Z,12.98
2022-11-01T13:51:41.557Z,19.27
2022-11-01T13:54:27.688Z,17.02
2022-11-01T13:57:13.992Z,13.10
2022-11-01T13:59:44.380Z,13.95
2022-11-01T14:02:23.380Z,17.70
2022-11-01T14:05:03.643Z,11.68
2022-11-01T14:07:45.191Z,14.52
2022-11-01T14:10:31.440Z,16.95
2022-11-01T14:13:06.864Z,19.20
2022-11-01T14:15:54.962Z,16.55
2022-11-01T14:18:21.626Z,18.08
2022-11-01T14:20:50.471Z,14.00
2022-11-01T14:23:27.671Z,13.80
2022-11-01T14:26:19.019Z,16.83
2022-11-01T14:28:55.293Z,15.82
2022-11-01T14:31:25.628Z,14.48
2022-11-01T14:33:56.107Z,19.73
2022-11-01T14:36:28.415Z,17.50
2022-11-01T14:39:15.346Z,17.42
2022-11-01T14:41:46.027Z,21.15
2022-11-01T14:44:30.605Z,18.95
2022-11-01T14:47:05.312Z,17.30
2022-11-01T14:49:43.230Z,16.27
2022-11-01T14:52:24.624Z,17.35
2022-11-01T14:55:04.423Z,16.65
2022-11-01T14:57:33.268Z,17.20
2022-11-01T15:00:11.340Z,20.05
2022-11-01T15:02:38.145Z,15.38
2022-11-01T15:05:04.847Z,15.85
2022-11-01T15:07:38.038Z,18.85
2022-11-01T15:10:13.731Z,17.42
2022-11-01T15:12:47.965Z,15.48
2022-11-01T15:15:23.846Z,12.95
2022-11-01T15:18:02.732Z,13.30
2022-11-01T15:20:34.886Z,13.25
2022-11-01T15:23:07.603Z,18.00
2022-11-01T15:25:34.100Z,12.67
2022-11-01T15:28:00.651Z,17.23
2022-11-01T15:30:30.235Z,11.32
2022-11-01T15:33:16.582Z,16.10
2022-11-01T15:35:43.113Z,10.20
2022-11-01T15:38:20.605Z,16.48
2022-11-01T15:40:48.486Z,11.68
2022-11-01T15:43:18.153Z,13.95
2022-11-01T15:46:07.641Z,11.60
2022-11-01T15:48:35.667Z,11.02
2022-11-01T15:51:07.292Z,16.35
2022-11-01T15:53:35.462Z,13.25
2022-11-01T15:56:15.773Z,14.75
2022-11-01T15:59:02.451Z,12.80
2022-11-01T16:01:29.050Z,14.80
2022-11-01T16:04:00.537Z,16.85
2022-11-01T16:06:44.788Z,15.45
2022-11-01T16:09:28.212Z,13.68
2022-11-01T16:11:59.235Z,20.63
2022-11-01T16:14:33.563Z,14.40
2022-11-01T16:17:06.350Z,15.07
2022-11-01T16:19:37.200Z,17.73
2022-11-01T16:22:05.332Z,15.02
2022-11-01T16:24:32.325Z,13.50
2022-11-01T16:27:03.529Z,18.55
2022-11-01T16:29:48.383Z,15.07
2022-11-01T16:32:27.194Z,15.50
2022-11-01T16:34:55.838Z,14.73
2022-11-01T16:37:27.583Z,13.88
2022-11-01T16:39:54.384Z,18.45
2022-11-01T16:42:21.853Z,12.13
2022-11-01T16:44:55.711Z,16.27
2022-11-01T16:47:22.748Z,12.57
2022-11-01T16:49:51.325Z,13.63
2022-11-01T16:52:18.387Z,13.75
2022-11-01T16:54:48.919Z,12.43
2022-11-01T16:57:27.184Z,11.82
2022-11-01T16:59:57.288Z,14.30
2022-11-01T17:02:29.627Z,15.05
2022-11-01T17:05:16.854Z,12.50
2022-11-01T17:07:43.313Z,16.67
2022-11-01T17:10:18.162Z,12.07
2022-11-01T17:12:45.112Z,11.27
2022-11-01T17:15:12.986Z,10.90
2022-11-01T17:17:40.698Z,12.93
2022-11-01T17:20:14.453Z,12.18
2022-11-01T17:22:41.710Z,15.85
2022-11-01T17:25:14.804Z,12.25
2022-11-01T17:27:41.254Z,9.23
2022-11-01T17:30:08.072Z,10.48
2022-11-01T17:32:34.516Z,10.13
2022-11-01T17:35:00.984Z,8.95
2022-11-01T17:37:31.396Z,10.93
2022-11-01T17:39:59.571Z,10.60
2022-11-01T17:42:26.040Z,8.95
2022-11-01T17:44:52.495Z,10.45
2022-11-01T17:47:19.109Z,9.73
2022-11-01T17:49:45.592Z,10.30
2022-11-01T17:52:12.024Z,15.27
2022-11-01T17:54:38.485Z,10.60
2022-11-01T17:57:04.929Z,11.05
2022-11-01T17:59:31.411Z,11.30
2022-11-01T18:01:58.113Z,10.30
2022-11-01T18:04:24.673Z,10.60
2022-11-01T18:06:51.947Z,11.30
2022-11-01T18:09:24.084Z,11.63
2022-11-01T18:11:58.564Z,10.90
2022-11-01T18:14:49.837Z,8.38
2022-11-01T18:17:18.889Z,10.13
2022-11-01T18:19:53.985Z,9.70
2022-11-01T18:22:35.509Z,10.18
2022-11-01T18:25:11.506Z,6.43
2022-11-01T18:27:39.032Z,7.55
2022-11-01T18:30:14.090Z,14.63
2022-11-01T18:33:02.050Z,11.25
2022-11-01T18:35:32.992Z,7.57
2022-11-01T18:38:12.714Z,10.35
2022-11-01T18:40:55.473Z,11.02
2022-11-01T18:43:21.963Z,8.93
2022-11-01T18:46:11.539Z,8.63
2022-11-01T18:48:35.069Z,7.80
2022-11-01T18:51:05.043Z,11.60
2022-11-01T18:53:33.222Z,9.02
2022-11-01T18:56:22.448Z,9.52
2022-11-01T18:58:50.170Z,8.88
2022-11-01T19:01:21.856Z,8.38
2022-11-01T19:03:58.280Z,9.80
2022-11-01T19:06:28.803Z,8.00
2022-11-01T19:08:57.088Z,9.80
2022-11-01T19:11:26.742Z,10.68
2022-11-01T19:13:53.700Z,11.05
2022-11-01T19:16:20.600Z,6.07
2022-11-01T19:18:49.581Z,9.32
2022-11-01T19:21:18.516Z,9.95
2022-11-01T19:23:54.457Z,10.35
2022-11-01T19:26:23.386Z,8.30
2022-11-01T19:28:52.372Z,8.88
2022-11-01T19:31:19.125Z,8.60
2022-11-01T19:33:46.737Z,10.93
2022-11-01T19:36:19.332Z,7.07
2022-11-01T19:38:46.587Z,7.85
2022-11-01T19:41:15.424Z,10.55
2022-11-01T19:43:41.875Z,9.73
2022-11-01T19:46:11.539Z,8.60
2022-11-01T19:48:38.100Z,8.73
2022-11-01T19:51:13.272Z,8.60
2022-11-01T19:53:42.435Z,9.40
2022-11-01T19:56:29.825Z,7.07
2022-11-01T19:59:00.479Z,7.75
2022-11-01T20:01:53.511Z,8.95
2022-11-01T20:04:27.889Z,11.02
2022-11-01T20:06:57.560Z,6.70
2022-11-01T20:09:26.636Z,8.40
2022-11-01T20:11:53.619Z,8.95
2022-11-01T20:14:20.782Z,7.68
2022-11-01T20:16:47.255Z,12.15
2022-11-01T20:19:17.412Z,10.48
2022-11-01T20:21:44.887Z,7.68
2022-11-01T20:24:11.433Z,8.10
2022-11-01T20:26:38.021Z,13.10
2022-11-01T20:29:04.524Z,10.13
2022-11-01T20:31:31.277Z,5.43
2022-11-01T20:33:58.198Z,7.00
2022-11-01T20:36:24.661Z,8.07
2022-11-01T20:38:51.140Z,6.60
2022-11-01T20:41:19.000Z,8.95
2022-11-01T20:43:45.471Z,8.05
2022-11-01T20:46:12.005Z,8.20
2022-11-01T20:48:38.456Z,7.68
2022-11-01T20:51:14.111Z,8.02
2022-11-01T20:53:41.204Z,5.72
2022-11-01T20:56:08.428Z,7.28
2022-11-01T20:58:40.124Z,8.10
2022-11-01T21:01:14.562Z,10.98
2022-11-01T21:03:41.132Z,6.13
2022-11-01T21:06:16.647Z,8.98
2022-11-01T21:08:46.961Z,9.68
2022-11-01T21:11:43.457Z,5.25
2022-11-01T21:14:19.712Z,8.27
2022-11-01T21:16:48.169Z,9.95
2022-11-01T21:19:22.414Z,10.02
2022-11-01T21:21:55.548Z,6.78
2022-11-01T21:24:30.624Z,5.63
2022-11-01T21:27:12.223Z,8.95
2022-11-01T21:29:48.977Z,9.35
2022-11-01T21:32:30.528Z,7.63
2022-11-01T21:34:58.259Z,7.63
2022-11-01T21:37:28.310Z,7.32
2022-11-01T21:40:01.544Z,6.75
2022-11-01T21:42:32.966Z,8.88
2022-11-01T21:45:00.089Z,8.35
2022-11-01T21:47:30.613Z,7.72
2022-11-01T21:49:57.172Z,8.82
2022-11-01T21:52:24.626Z,7.57
2022-11-01T21:54:52.664Z,6.65
2022-11-01T21:57:19.449Z,9.10
2022-11-01T21:59:46.090Z,6.82
2022-11-01T22:02:14.014Z,11.23
2022-11-01T22:04:40.756Z,7.55
2022-11-01T22:07:08.586Z,8.52
2022-11-01T22:09:35.368Z,7.05
2022-11-01T22:12:01.870Z,6.95
2022-11-01T22:14:28.391Z,6.88
2022-11-01T22:16:54.982Z,7.18
2022-11-01T22:19:21.486Z,6.85
2022-11-01T22:21:48.026Z,5.97
2022-11-01T22:24:14.604Z,8.18
2022-11-01T22:26:41.051Z,8.45
2022-11-01T22:29:07.511Z,7.40
2022-11-01T22:31:34.059Z,8.90
2022-11-01T22:34:01.327Z,11.60
2022-11-01T22:36:30.003Z,7.90
2022-11-01T22:38:59.616Z,11.27
2022-11-01T22:41:33.256Z,7.32
2022-11-01T22:44:05.916Z,8.80
2022-11-01T22:46:46.513Z,8.70
2022-11-01T22:49:20.442Z,8.35
2022-11-01T22:51:50.484Z,10.90
2022-11-01T22:54:27.652Z,6.88
2022-11-01T22:57:21.864Z,7.75
2022-11-01T23:02:30.927Z,10.45
2022-11-01T23:05:06.782Z,7.65
2022-11-01T23:07:35.882Z,7.55
2022-11-01T23:10:05.446Z,7.97
2022-11-01T23:12:52.445Z,9.05
2022-11-01T23:15:23.362Z,8.27
2022-11-01T23:17:49.816Z,10.52
2022-11-01T23:20:17.253Z,8.82
2022-11-01T23:22:43.707Z,5.88
2022-11-01T23:25:10.147Z,6.93
2022-11-01T23:27:36.712Z,8.88
2022-11-01T23:30:03.331Z,8.55
2022-11-01T23:32:30.575Z,11.50
2022-11-01T23:35:11.648Z,12.00
2022-11-01T23:37:38.090Z,8.63
2022-11-01T23:40:13.405Z,9.93
2022-11-01T23:42:39.869Z,8.43
2022-11-01T23:45:20.493Z,7.10
2022-11-01T23:47:46.946Z,4.35
2022-11-01T23:50:20.023Z,7.75
2022-11-01T23:52:48.494Z,9.82
2022-11-01T23:55:24.285Z,8.48
2022-11-01T23:57:55.732Z,7.45
